Domov               UVHVVR             MKGP            O straneh              
ZDRAVSTVENO VARSTVO RASTLIN
  MREŽA AGROMET. POSTAJ
 ► PROGNOSTIČNA OBVESTILA
AGROMETEOROLOŠKI PODATKI -
ARSO
OBVLADOVANJE TVEGANJ ZARADI
NEUGODNIH VREMENSKIH RAZMER
  ► NARAVNE NESREČE
  ► SUŠA/MOČA
  ► NAMAKANJE
  ► ŽLED (gozdarstvo)
KARTOGRAFSKI PRIKAZI
SPLETNE POVEZAVE
PROJEKTI IN PUBLIKACIJE

AGROMETEOROLOŠKA MREŽA: VREMENSKE POSTAJE IN FENOLOŠKA OPAZOVANJA

Pregled podatkov za lokacijo Maribor - BTŠ, meteorološka postaja 35810

Pregled senzorjev na lokaciji

ID Ime Zadnja
vrednost
Datum
zadnje
spremembe
Tip
senzorja
4297 Omočenost lista (U) 0 U 16.7.2018 00:30 A730WET
1723 Padavine (mm) 0 mm 16.7.2018 00:30 Generic 0.2 mm
1722 Relativna vlaga 2 m (% RH) 84,57 % RH 16.7.2018 00:30 Generic 0 - 100 %
1721 Temperatura 2 m (°C) 17,53 °C 16.7.2018 00:30 Generic -40 - +60 °C
4296 Smer vetra (°) 296,97 ° 16.7.2018 00:30 Generic 0 - 360
4295 Hitrost vetra (km/h) 2,64 km/h 16.7.2018 00:30 Generic 100 km/h

Pregled podatkov zadnjih 24 ur

Zap.
št.
Datum in čas Maribor - BTŠ
Omočenost
lista
Padavine Relativna
vlaga
2
m
Temperatura
2
m
Smer
vetra
Hitrost
vetra
1 16.7.2018 00:30
2 16.7.2018 00:00
3 15.7.2018 23:30 0 0 84,6 17,5 297 2,6
4 15.7.2018 23:00 2 0 83,8 17,9 292,8 2,2
5 15.7.2018 22:30 1 0 84,4 18 283 1,4
6 15.7.2018 22:00 0 0 84,5 18,2 342,2 0,9
7 15.7.2018 21:30 0 0 82 19 278,9 2,4
8 15.7.2018 21:00 0 0 84,1 18,7 274,8 1,9
9 15.7.2018 20:30 0 0 79 19,9 285,5 1,3
10 15.7.2018 20:00 0 0 80,4 20,3 292,3 1,1
11 15.7.2018 19:30 0 0 75,8 21,6 286,3 1,5
12 15.7.2018 19:00 0 0 73,4 22 284,4 0,8
13 15.7.2018 18:30 0 0 69,7 22,6 298,6 1,1
14 15.7.2018 18:00 0 0 66,2 23,8 204 1,1
15 15.7.2018 17:30 0 0 64,1 24,2 342,3 1,5
16 15.7.2018 17:00 0 0 64,5 23,9 276,1 1,2
17 15.7.2018 16:30 0 0 63 24,2 73,6 1,1
18 15.7.2018 16:00 0 0 62,9 24,2 95,6 1
19 15.7.2018 15:30 0 0 48,5 25 16,5 1,7
20 15.7.2018 15:00 0 0 44,6 25,2 78,8 1,8
21 15.7.2018 14:30 0 0 48,7 25,5 136,7 2,7
22 15.7.2018 14:00 0 0 56,9 25,7 97,6 1,7
23 15.7.2018 13:30 0 0 58,4 24,7 60,3 1,9
24 15.7.2018 13:00 0 0 55,1 25,1 104,6 2,2
25 15.7.2018 12:30 0 0 50,1 24,9 124,6 2,1
26 15.7.2018 12:00 0 0 54,6 24,6 103,8 2,3
27 15.7.2018 11:30 0 0 59,8 23,5 133,3 2,3
28 15.7.2018 11:00 0 0 57,3 24,5 53,2 1,4
29 15.7.2018 10:30 0 0 54,7 25 277,1 1
30 15.7.2018 10:00 0 0 66,1 23,6 203,5 1,2
31 15.7.2018 09:30 0 0 69,1 22,7 305,1 2,6
32 15.7.2018 09:00 0 0 70,7 22,2 278,2 3,3
33 15.7.2018 08:30 0 0 75,3 20,9 297,2 3,3
34 15.7.2018 08:00 0 0 79,2 19,6 275,3 3,5
35 15.7.2018 07:30 0 0 81,7 18,7 295,6 3,2
36 15.7.2018 07:00 0 0 85,3 17,8 290,8 3,5
37 15.7.2018 06:30 0 0 86,3 17,3 308 3,2
38 15.7.2018 06:00 3 0 87,2 16,8 299,1 3,5
39 15.7.2018 05:30 10 0 88,9 16,4 302,3 3
40 15.7.2018 05:00 10 0 89,2 16,2 295 2,9
41 15.7.2018 04:30 10 0 89,8 16,1 284 3,2
42 15.7.2018 04:00 9 0 89,7 16,2 297,1 2,5
43 15.7.2018 03:30 6 0 93,2 16,1 302,9 1,8
44 15.7.2018 03:00 5 0 88,7 16,9 252,8 2,3
45 15.7.2018 02:30 8 0 88,7 17 311,7 3,5
46 15.7.2018 02:00 1 0 88,8 17,1 278,4 3,6
47 15.7.2018 01:30 10 0 89,1 17,1 289,9 3,2
48 15.7.2018 01:00 10 0 90,2 17,1 286 3,1
© 2011 Ministrstvo za kmetijstvo, gozdarstvo in prehrano. Vse pravice pridržane.